Marion, Indiana
Current Conditions -  °F | °C
As of 6:15 PM on Wednesday 17 Dec 2014 (Local Time) from KMZZ Reporting Station
Overcast Overcast  
Wind Chill: 14°   Ceiling: 1400
Heat Index: 25°   Visibility: 10mi
Dew Point: 22°   Wind: 12mph
Humidity: 91%   Direction: 280°W
Pressure: 30.25"   Gusts: NA
Location:  40.56°N, 85.66°W
Report Text: KMZZ 172315Z AUTO 28010KT 10SM OVC014 M04/M05 A3025 RMK AO2 T10411054
Loading
Personal Weather Stations






























Interactive Weather Map New forecast layout! Learn more

10-Day Weather Forecast

Advertisements
Track Severe Weather on mobile